CST,Max TemperatureF,Mean TemperatureF,Min TemperatureF,Max Dew PointF,MeanDew PointF,Min DewpointF,Max Humidity, Mean Humidity, Min Humidity, Max Sea Level PressureIn, Mean Sea Level PressureIn, Min Sea Level PressureIn, Max VisibilityMiles, Mean VisibilityMiles, Min VisibilityMiles, Max Wind SpeedMPH, Mean Wind SpeedMPH, Max Gust SpeedMPH,PrecipitationIn, CloudCover, Events, WindDirDegrees
2013-1-1,39,37,35,38,36,33,100,97,92,30.22,30.10,30.01,9,4,0,7,1,,0.00,8,Fog-Rain,319
2013-1-2,37,32,28,34,31,26,100,92,79,30.30,30.24,30.18,7,4,2,5,1,,0.00,6,,322
2013-1-3,46,34,23,30,25,20,96,78,44,30.45,30.40,30.30,10,8,4,7,1,,0.00,0,,333
2013-1-4,46,35,24,29,25,20,96,74,35,30.53,30.44,30.38,10,10,10,7,1,,0.00,3,,323
2013-1-5,46,38,30,34,31,27,100,79,59,30.37,30.31,30.24,10,9,3,7,1,,0.00,6,Snow,-1
2013-1-6,54,39,24,32,26,22,100,72,30,30.39,30.31,30.24,10,8,2,9,1,17,0.00,0,,333
2013-1-7,52,36,19,30,23,17,96,70,30,30.43,30.30,30.19,10,10,10,7,1,,0.00,0,,133
2013-1-8,53,40,28,46,36,25,100,77,54,30.21,30.14,30.05,10,9,2,5,0,,0.07,7,Rain,120
2013-1-9,53,50,46,53,48,45,100,99,93,30.29,30.20,30.14,10,3,1,6,1,,0.95,8,Rain,68
2013-1-10,63,57,51,61,54,44,100,92,72,30.15,29.96,29.81,10,6,1,9,4,25,0.20,7,Rain,118
2013-1-11,64,54,43,51,46,41,93,72,56,29.95,29.89,29.84,10,10,10,8,3,,0.00,1,,130
2013-1-12,70,54,37,65,55,36,100,92,72,29.89,29.80,29.63,10,6,0,13,2,24,1.99,7,Fog-Rain,303
2013-1-13,39,33,25,36,30,22,100,86,65,30.32,30.06,29.84,10,9,2,10,6,23,0.04,6,Rain,323
2013-1-14,39,31,23,22,20,16,91,70,49,30.44,30.33,30.29,10,10,4,6,1,,0.00,2,Snow,55
2013-1-15,30,26,23,30,25,16,100,87,63,30.32,30.20,30.12,10,6,1,5,1,,0.08,7,Snow,328
2013-1-16,46,36,26,28,19,9,93,60,23,30.23,30.17,30.11,10,10,10,7,3,,0.00,3,,327
2013-1-17,55,40,25,31,26,19,89,60,37,30.50,30.34,30.21,10,10,10,7,3,,0.00,0,,310
2013-1-18,55,39,23,33,25,21,96,67,29,30.56,30.45,30.30,10,10,10,8,1,,0.00,0,,188
2013-1-19,60,48,35,37,32,24,89,57,41,30.30,30.22,30.15,10,10,10,8,1,,0.00,0,,260
2013-1-20,63,46,28,40,34,28,96,74,35,30.27,30.19,30.13,10,10,8,8,1,,0.00,0,,147
2013-1-21,50,39,27,34,25,18,100,66,31,30.35,30.27,30.15,10,10,9,6,1,,0.00,2,,105
2013-1-22,48,34,21,29,23,20,96,69,36,30.40,30.32,30.28,10,10,10,10,1,,0.00,2,,135
2013-1-23,69,48,28,48,37,26,96,75,44,30.31,30.24,30.15,10,10,5,8,1,,0.00,2,,280
2013-1-24,46,40,35,42,33,25,100,77,49,30.32,30.23,30.16,10,8,2,9,2,17,0.00,6,Rain,113
2013-1-25,48,40,33,39,35,27,100,88,69,30.24,30.15,30.06,10,6,1,8,1,,0.01,6,,325
2013-1-26,46,38,30,39,34,30,100,84,61,30.30,30.24,30.20,10,7,2,6,1,,0.00,6,,114
2013-1-27,64,53,42,59,47,39,100,93,78,30.19,30.11,29.99,10,6,0,13,2,24,0.00,7,Fog,140
2013-1-28,71,68,64,63,61,60,90,82,75,30.05,29.97,29.90,10,10,5,13,7,30,0.13,7,Rain,182
2013-1-29,70,62,51,65,60,48,100,91,81,29.90,29.66,29.45,10,6,1,16,7,33,1.72,8,Rain,192
2013-1-30,53,42,28,46,32,24,89,68,47,30.09,29.78,29.53,10,10,9,17,5,28,0.00,4,,316
2013-1-31,61,42,24,30,24,21,96,58,22,30.34,30.15,30.07,10,10,10,10,2,17,0.00,0,,287